sensor_id;sensor_type;location;lat;lon;timestamp;pressure;altitude;pressure_sealevel;temperature;humidity
64095;BME280;50353;51.420;5.682;2024-01-10T00:01:06;102784.28;;;-3.69;94.14
64095;BME280;50353;51.420;5.682;2024-01-10T00:03:32;102788.44;;;-3.75;96.16
64095;BME280;50353;51.420;5.682;2024-01-10T00:05:57;102775.00;;;-3.90;97.76
64095;BME280;50353;51.420;5.682;2024-01-10T00:08:24;102767.22;;;-3.92;96.46
64095;BME280;50353;51.420;5.682;2024-01-10T00:10:51;102770.06;;;-3.84;96.03
64095;BME280;50353;51.420;5.682;2024-01-10T00:13:17;102777.72;;;-3.87;96.02
64095;BME280;50353;51.420;5.682;2024-01-10T00:15:42;102774.69;;;-4.01;97.95
64095;BME280;50353;51.420;5.682;2024-01-10T00:18:08;102774.03;;;-3.95;96.96
64095;BME280;50353;51.420;5.682;2024-01-10T00:20:33;102776.34;;;-4.03;100.00
64095;BME280;50353;51.420;5.682;2024-01-10T00:22:58;102768.19;;;-4.17;100.00
64095;BME280;50353;51.420;5.682;2024-01-10T00:25:24;102761.53;;;-4.09;100.00
64095;BME280;50353;51.420;5.682;2024-01-10T00:27:49;102768.56;;;-4.04;100.00
64095;BME280;50353;51.420;5.682;2024-01-10T00:30:14;102765.81;;;-4.09;100.00
64095;BME280;50353;51.420;5.682;2024-01-10T00:32:40;102754.91;;;-4.00;97.57
64095;BME280;50353;51.420;5.682;2024-01-10T00:35:05;102757.53;;;-3.99;96.19
64095;BME280;50353;51.420;5.682;2024-01-10T00:37:31;102757.88;;;-4.15;100.00
64095;BME280;50353;51.420;5.682;2024-01-10T00:39:56;102756.16;;;-4.15;100.00
64095;BME280;50353;51.420;5.682;2024-01-10T00:42:21;102756.94;;;-4.17;100.00
64095;BME280;50353;51.420;5.682;2024-01-10T00:44:47;102768.84;;;-4.22;100.00
64095;BME280;50353;51.420;5.682;2024-01-10T00:47:12;102757.06;;;-4.42;100.00
64095;BME280;50353;51.420;5.682;2024-01-10T00:49:38;102759.03;;;-4.33;100.00
64095;BME280;50353;51.420;5.682;2024-01-10T00:52:03;102753.34;;;-4.50;100.00
64095;BME280;50353;51.420;5.682;2024-01-10T00:54:29;102756.28;;;-4.39;100.00
64095;BME280;50353;51.420;5.682;2024-01-10T00:56:54;102752.53;;;-4.47;100.00
64095;BME280;50353;51.420;5.682;2024-01-10T00:59:19;102745.59;;;-4.50;100.00
64095;BME280;50353;51.420;5.682;2024-01-10T01:01:45;102744.94;;;-4.70;100.00
64095;BME280;50353;51.420;5.682;2024-01-10T01:04:10;102755.78;;;-4.79;100.00
64095;BME280;50353;51.420;5.682;2024-01-10T01:06:35;102759.81;;;-4.61;100.00
64095;BME280;50353;51.420;5.682;2024-01-10T01:09:01;102749.31;;;-4.67;100.00
64095;BME280;50353;51.420;5.682;2024-01-10T01:11:27;102757.28;;;-4.60;100.00
64095;BME280;50353;51.420;5.682;2024-01-10T01:13:52;102759.38;;;-4.49;100.00
64095;BME280;50353;51.420;5.682;2024-01-10T01:16:17;102752.25;;;-4.56;100.00
64095;BME280;50353;51.420;5.682;2024-01-10T01:18:43;102757.88;;;-4.43;100.00
64095;BME280;50353;51.420;5.682;2024-01-10T01:21:11;102744.56;;;-4.55;100.00
64095;BME280;50353;51.420;5.682;2024-01-10T01:23:36;102754.13;;;-4.52;100.00
64095;BME280;50353;51.420;5.682;2024-01-10T01:26:01;102745.97;;;-4.65;100.00
64095;BME280;50353;51.420;5.682;2024-01-10T01:28:29;102749.47;;;-4.63;100.00
64095;BME280;50353;51.420;5.682;2024-01-10T01:30:54;102746.69;;;-4.69;100.00
64095;BME280;50353;51.420;5.682;2024-01-10T01:33:20;102747.25;;;-4.78;100.00
64095;BME280;50353;51.420;5.682;2024-01-10T01:35:45;102740.69;;;-4.68;100.00
64095;BME280;50353;51.420;5.682;2024-01-10T01:38:10;102737.00;;;-4.75;100.00
64095;BME280;50353;51.420;5.682;2024-01-10T01:40:35;102748.63;;;-4.62;100.00
64095;BME280;50353;51.420;5.682;2024-01-10T01:43:01;102749.81;;;-4.52;100.00
64095;BME280;50353;51.420;5.682;2024-01-10T01:45:26;102751.19;;;-4.63;100.00
64095;BME280;50353;51.420;5.682;2024-01-10T01:47:51;102756.41;;;-4.86;100.00
64095;BME280;50353;51.420;5.682;2024-01-10T01:50:17;102737.44;;;-4.88;100.00
64095;BME280;50353;51.420;5.682;2024-01-10T01:52:43;102744.50;;;-4.82;100.00
64095;BME280;50353;51.420;5.682;2024-01-10T01:55:09;102740.84;;;-4.89;100.00
64095;BME280;50353;51.420;5.682;2024-01-10T01:57:37;102741.31;;;-4.75;100.00
64095;BME280;50353;51.420;5.682;2024-01-10T02:00:02;102717.00;;;-4.82;100.00
64095;BME280;50353;51.420;5.682;2024-01-10T02:02:30;102734.16;;;-4.84;100.00
64095;BME280;50353;51.420;5.682;2024-01-10T02:04:56;102732.53;;;-4.80;100.00
64095;BME280;50353;51.420;5.682;2024-01-10T02:07:22;102728.75;;;-4.90;100.00
64095;BME280;50353;51.420;5.682;2024-01-10T02:09:48;102726.13;;;-4.92;100.00
64095;BME280;50353;51.420;5.682;2024-01-10T02:12:13;102722.16;;;-4.82;100.00
64095;BME280;50353;51.420;5.682;2024-01-10T02:14:39;102720.94;;;-4.93;100.00
64095;BME280;50353;51.420;5.682;2024-01-10T02:17:04;102728.72;;;-4.92;100.00
64095;BME280;50353;51.420;5.682;2024-01-10T02:19:30;102720.03;;;-4.94;100.00
64095;BME280;50353;51.420;5.682;2024-01-10T02:21:57;102718.59;;;-4.85;100.00
64095;BME280;50353;51.420;5.682;2024-01-10T02:24:23;102705.97;;;-4.78;100.00
64095;BME280;50353;51.420;5.682;2024-01-10T02:26:48;102712.16;;;-4.98;100.00
64095;BME280;50353;51.420;5.682;2024-01-10T02:29:15;102722.03;;;-4.86;100.00
64095;BME280;50353;51.420;5.682;2024-01-10T02:31:40;102721.78;;;-4.93;100.00
64095;BME280;50353;51.420;5.682;2024-01-10T02:34:05;102713.72;;;-5.02;100.00
64095;BME280;50353;51.420;5.682;2024-01-10T02:36:31;102708.47;;;-5.05;100.00
64095;BME280;50353;51.420;5.682;2024-01-10T02:38:56;102717.25;;;-5.00;100.00
64095;BME280;50353;51.420;5.682;2024-01-10T02:41:21;102719.38;;;-5.14;100.00
64095;BME280;50353;51.420;5.682;2024-01-10T02:43:47;102698.50;;;-5.20;100.00
64095;BME280;50353;51.420;5.682;2024-01-10T02:46:12;102715.88;;;-5.14;100.00
64095;BME280;50353;51.420;5.682;2024-01-10T02:48:37;102697.50;;;-4.99;100.00
64095;BME280;50353;51.420;5.682;2024-01-10T02:51:03;102705.22;;;-4.99;100.00
64095;BME280;50353;51.420;5.682;2024-01-10T02:53:28;102718.50;;;-5.13;100.00
64095;BME280;50353;51.420;5.682;2024-01-10T02:55:55;102708.44;;;-5.06;100.00
64095;BME280;50353;51.420;5.682;2024-01-10T02:58:20;102710.28;;;-5.02;100.00
64095;BME280;50353;51.420;5.682;2024-01-10T03:00:46;102708.75;;;-4.97;100.00
64095;BME280;50353;51.420;5.682;2024-01-10T03:03:12;102710.50;;;-4.96;100.00
64095;BME280;50353;51.420;5.682;2024-01-10T03:05:37;102700.91;;;-5.00;100.00
64095;BME280;50353;51.420;5.682;2024-01-10T03:08:03;102709.38;;;-5.04;100.00
64095;BME280;50353;51.420;5.682;2024-01-10T03:10:29;102711.72;;;-5.11;100.00
64095;BME280;50353;51.420;5.682;2024-01-10T03:12:55;102676.69;;;-5.30;100.00
64095;BME280;50353;51.420;5.682;2024-01-10T03:15:20;102675.22;;;-5.23;100.00
64095;BME280;50353;51.420;5.682;2024-01-10T03:17:46;102695.50;;;-5.08;100.00
64095;BME280;50353;51.420;5.682;2024-01-10T03:20:11;102698.88;;;-5.09;100.00
64095;BME280;50353;51.420;5.682;2024-01-10T03:22:36;102688.56;;;-5.09;100.00
64095;BME280;50353;51.420;5.682;2024-01-10T03:25:02;102681.19;;;-5.24;100.00
64095;BME280;50353;51.420;5.682;2024-01-10T03:27:28;102683.88;;;-4.95;100.00
64095;BME280;50353;51.420;5.682;2024-01-10T03:29:53;102678.84;;;-5.18;100.00
64095;BME280;50353;51.420;5.682;2024-01-10T03:32:18;102681.09;;;-5.27;100.00
64095;BME280;50353;51.420;5.682;2024-01-10T03:34:43;102671.59;;;-5.28;100.00
64095;BME280;50353;51.420;5.682;2024-01-10T03:37:09;102675.63;;;-5.11;100.00
64095;BME280;50353;51.420;5.682;2024-01-10T03:39:34;102681.88;;;-5.04;100.00
64095;BME280;50353;51.420;5.682;2024-01-10T03:42:00;102676.13;;;-5.21;100.00
64095;BME280;50353;51.420;5.682;2024-01-10T03:44:26;102677.38;;;-5.35;100.00
64095;BME280;50353;51.420;5.682;2024-01-10T03:46:51;102680.75;;;-5.12;100.00
64095;BME280;50353;51.420;5.682;2024-01-10T03:49:17;102686.31;;;-5.00;100.00
64095;BME280;50353;51.420;5.682;2024-01-10T03:51:42;102683.50;;;-5.06;100.00
64095;BME280;50353;51.420;5.682;2024-01-10T03:54:08;102673.72;;;-5.16;100.00
64095;BME280;50353;51.420;5.682;2024-01-10T03:56:33;102669.38;;;-5.17;100.00
64095;BME280;50353;51.420;5.682;2024-01-10T03:58:59;102667.84;;;-5.12;100.00
64095;BME280;50353;51.420;5.682;2024-01-10T04:01:26;102659.34;;;-5.10;100.00
64095;BME280;50353;51.420;5.682;2024-01-10T04:03:51;102654.25;;;-5.08;100.00
64095;BME280;50353;51.420;5.682;2024-01-10T04:06:17;102655.41;;;-4.98;100.00
64095;BME280;50353;51.420;5.682;2024-01-10T04:08:42;102651.81;;;-5.03;100.00
64095;BME280;50353;51.420;5.682;2024-01-10T04:11:08;102661.19;;;-5.05;100.00
64095;BME280;50353;51.420;5.682;2024-01-10T04:13:34;102658.66;;;-5.04;100.00
64095;BME280;50353;51.420;5.682;2024-01-10T04:15:59;102653.50;;;-5.04;100.00
64095;BME280;50353;51.420;5.682;2024-01-10T04:18:25;102647.94;;;-5.16;100.00
64095;BME280;50353;51.420;5.682;2024-01-10T04:20:51;102655.78;;;-5.37;100.00
64095;BME280;50353;51.420;5.682;2024-01-10T04:23:17;102654.50;;;-5.26;100.00
64095;BME280;50353;51.420;5.682;2024-01-10T04:25:42;102661.75;;;-5.14;100.00
64095;BME280;50353;51.420;5.682;2024-01-10T04:28:08;102651.94;;;-5.00;100.00
64095;BME280;50353;51.420;5.682;2024-01-10T04:30:33;102652.69;;;-5.03;100.00
64095;BME280;50353;51.420;5.682;2024-01-10T04:32:58;102665.03;;;-5.18;100.00
64095;BME280;50353;51.420;5.682;2024-01-10T04:35:24;102659.78;;;-5.21;100.00
64095;BME280;50353;51.420;5.682;2024-01-10T04:37:49;102654.44;;;-5.02;100.00
64095;BME280;50353;51.420;5.682;2024-01-10T04:40:14;102656.53;;;-5.16;100.00
64095;BME280;50353;51.420;5.682;2024-01-10T04:42:40;102651.16;;;-5.23;100.00
64095;BME280;50353;51.420;5.682;2024-01-10T04:45:05;102655.34;;;-5.26;100.00
64095;BME280;50353;51.420;5.682;2024-01-10T04:47:32;102647.53;;;-5.03;100.00
64095;BME280;50353;51.420;5.682;2024-01-10T04:49:58;102645.72;;;-5.05;100.00
64095;BME280;50353;51.420;5.682;2024-01-10T04:52:23;102639.31;;;-5.17;100.00
64095;BME280;50353;51.420;5.682;2024-01-10T04:54:48;102640.16;;;-5.18;100.00
64095;BME280;50353;51.420;5.682;2024-01-10T04:57:15;102648.09;;;-5.12;100.00
64095;BME280;50353;51.420;5.682;2024-01-10T04:59:41;102639.94;;;-5.24;100.00
64095;BME280;50353;51.420;5.682;2024-01-10T05:02:07;102641.47;;;-5.03;100.00
64095;BME280;50353;51.420;5.682;2024-01-10T05:04:32;102653.44;;;-5.31;100.00
64095;BME280;50353;51.420;5.682;2024-01-10T05:06:58;102648.56;;;-5.23;100.00
64095;BME280;50353;51.420;5.682;2024-01-10T05:09:23;102648.28;;;-5.31;100.00
64095;BME280;50353;51.420;5.682;2024-01-10T05:11:48;102649.00;;;-5.35;100.00
64095;BME280;50353;51.420;5.682;2024-01-10T05:14:16;102637.03;;;-5.33;100.00
64095;BME280;50353;51.420;5.682;2024-01-10T05:16:42;102631.25;;;-5.28;100.00
64095;BME280;50353;51.420;5.682;2024-01-10T05:19:07;102628.91;;;-5.20;100.00
64095;BME280;50353;51.420;5.682;2024-01-10T05:21:32;102635.59;;;-5.25;100.00
64095;BME280;50353;51.420;5.682;2024-01-10T05:23:58;102644.47;;;-5.17;100.00
64095;BME280;50353;51.420;5.682;2024-01-10T05:26:24;102646.09;;;-5.20;100.00
64095;BME280;50353;51.420;5.682;2024-01-10T05:28:49;102642.31;;;-5.30;100.00
64095;BME280;50353;51.420;5.682;2024-01-10T05:31:14;102644.38;;;-5.20;100.00
64095;BME280;50353;51.420;5.682;2024-01-10T05:33:40;102648.97;;;-5.37;100.00
64095;BME280;50353;51.420;5.682;2024-01-10T05:36:08;102654.84;;;-5.41;100.00
64095;BME280;50353;51.420;5.682;2024-01-10T05:38:33;102656.56;;;-5.40;100.00
64095;BME280;50353;51.420;5.682;2024-01-10T05:40:59;102649.72;;;-5.39;100.00
64095;BME280;50353;51.420;5.682;2024-01-10T05:43:24;102644.94;;;-5.29;100.00
64095;BME280;50353;51.420;5.682;2024-01-10T05:45:49;102649.09;;;-5.32;100.00
64095;BME280;50353;51.420;5.682;2024-01-10T05:48:15;102644.94;;;-5.29;100.00
64095;BME280;50353;51.420;5.682;2024-01-10T05:50:42;102634.22;;;-5.41;100.00
64095;BME280;50353;51.420;5.682;2024-01-10T05:53:07;102641.38;;;-5.32;100.00
64095;BME280;50353;51.420;5.682;2024-01-10T05:55:33;102638.25;;;-5.23;100.00
64095;BME280;50353;51.420;5.682;2024-01-10T05:57:59;102633.28;;;-5.43;100.00
64095;BME280;50353;51.420;5.682;2024-01-10T06:00:24;102639.13;;;-5.23;100.00
64095;BME280;50353;51.420;5.682;2024-01-10T06:02:50;102637.25;;;-5.27;100.00
64095;BME280;50353;51.420;5.682;2024-01-10T06:05:15;102640.56;;;-5.31;100.00
64095;BME280;50353;51.420;5.682;2024-01-10T06:07:41;102634.63;;;-5.29;100.00
64095;BME280;50353;51.420;5.682;2024-01-10T06:10:07;102633.22;;;-5.45;100.00
64095;BME280;50353;51.420;5.682;2024-01-10T06:12:32;102641.06;;;-5.41;100.00
64095;BME280;50353;51.420;5.682;2024-01-10T06:14:57;102636.28;;;-5.31;100.00
64095;BME280;50353;51.420;5.682;2024-01-10T06:17:23;102640.28;;;-5.39;100.00
64095;BME280;50353;51.420;5.682;2024-01-10T06:19:49;102629.66;;;-5.48;100.00
64095;BME280;50353;51.420;5.682;2024-01-10T06:22:15;102633.97;;;-5.71;100.00
64095;BME280;50353;51.420;5.682;2024-01-10T06:24:42;102641.13;;;-5.64;100.00
64095;BME280;50353;51.420;5.682;2024-01-10T06:27:07;102630.66;;;-5.45;100.00
64095;BME280;50353;51.420;5.682;2024-01-10T06:29:33;102638.38;;;-5.45;100.00
64095;BME280;50353;51.420;5.682;2024-01-10T06:31:59;102634.94;;;-5.45;100.00
64095;BME280;50353;51.420;5.682;2024-01-10T06:34:26;102638.38;;;-5.69;100.00
64095;BME280;50353;51.420;5.682;2024-01-10T06:36:52;102639.66;;;-5.57;100.00
64095;BME280;50353;51.420;5.682;2024-01-10T06:39:17;102635.97;;;-5.64;100.00
64095;BME280;50353;51.420;5.682;2024-01-10T06:41:47;102623.75;;;-5.70;100.00
64095;BME280;50353;51.420;5.682;2024-01-10T06:44:13;102640.63;;;-5.54;100.00
64095;BME280;50353;51.420;5.682;2024-01-10T06:46:39;102648.91;;;-5.63;100.00
64095;BME280;50353;51.420;5.682;2024-01-10T06:49:04;102649.19;;;-5.79;100.00
64095;BME280;50353;51.420;5.682;2024-01-10T06:51:29;102657.50;;;-5.62;100.00
64095;BME280;50353;51.420;5.682;2024-01-10T06:53:55;102660.44;;;-5.75;100.00
64095;BME280;50353;51.420;5.682;2024-01-10T06:56:28;102645.50;;;-5.86;100.00
64095;BME280;50353;51.420;5.682;2024-01-10T06:58:53;102660.75;;;-5.68;100.00
64095;BME280;50353;51.420;5.682;2024-01-10T07:01:19;102652.97;;;-5.69;100.00
64095;BME280;50353;51.420;5.682;2024-01-10T07:03:47;102651.75;;;-5.55;100.00
64095;BME280;50353;51.420;5.682;2024-01-10T07:06:12;102651.75;;;-5.55;100.00
64095;BME280;50353;51.420;5.682;2024-01-10T07:08:40;102642.84;;;-5.63;100.00
64095;BME280;50353;51.420;5.682;2024-01-10T07:11:05;102633.31;;;-5.41;100.00
64095;BME280;50353;51.420;5.682;2024-01-10T07:13:31;102629.50;;;-5.53;100.00
64095;BME280;50353;51.420;5.682;2024-01-10T07:15:57;102630.50;;;-5.49;100.00
64095;BME280;50353;51.420;5.682;2024-01-10T07:18:22;102623.69;;;-5.47;100.00
64095;BME280;50353;51.420;5.682;2024-01-10T07:20:47;102624.91;;;-5.62;100.00
64095;BME280;50353;51.420;5.682;2024-01-10T07:23:12;102620.81;;;-5.55;100.00
64095;BME280;50353;51.420;5.682;2024-01-10T07:25:38;102616.09;;;-5.68;100.00
64095;BME280;50353;51.420;5.682;2024-01-10T07:28:03;102617.00;;;-5.66;100.00
64095;BME280;50353;51.420;5.682;2024-01-10T07:30:29;102623.47;;;-5.53;100.00
64095;BME280;50353;51.420;5.682;2024-01-10T07:32:58;102618.44;;;-5.50;100.00
64095;BME280;50353;51.420;5.682;2024-01-10T07:35:23;102623.41;;;-5.55;100.00
64095;BME280;50353;51.420;5.682;2024-01-10T07:37:49;102628.50;;;-5.32;100.00
64095;BME280;50353;51.420;5.682;2024-01-10T07:40:14;102623.72;;;-5.46;100.00
64095;BME280;50353;51.420;5.682;2024-01-10T07:42:39;102629.16;;;-5.62;100.00
64095;BME280;50353;51.420;5.682;2024-01-10T07:45:05;102618.88;;;-5.62;100.00
64095;BME280;50353;51.420;5.682;2024-01-10T07:47:31;102636.28;;;-5.55;100.00
64095;BME280;50353;51.420;5.682;2024-01-10T07:49:57;102640.81;;;-5.49;100.00
64095;BME280;50353;51.420;5.682;2024-01-10T07:52:23;102643.63;;;-5.41;100.00
64095;BME280;50353;51.420;5.682;2024-01-10T07:54:48;102633.22;;;-5.45;100.00
64095;BME280;50353;51.420;5.682;2024-01-10T07:57:14;102634.56;;;-5.56;100.00
64095;BME280;50353;51.420;5.682;2024-01-10T07:59:39;102640.88;;;-5.22;100.00
64095;BME280;50353;51.420;5.682;2024-01-10T08:02:05;102630.84;;;-5.13;100.00
64095;BME280;50353;51.420;5.682;2024-01-10T08:04:30;102636.44;;;-5.00;100.00
64095;BME280;50353;51.420;5.682;2024-01-10T08:06:55;102638.19;;;-4.99;100.00
64095;BME280;50353;51.420;5.682;2024-01-10T08:09:21;102642.63;;;-4.95;100.00
64095;BME280;50353;51.420;5.682;2024-01-10T08:11:48;102642.09;;;-4.85;100.00
64095;BME280;50353;51.420;5.682;2024-01-10T08:14:14;102633.34;;;-4.90;100.00
64095;BME280;50353;51.420;5.682;2024-01-10T08:16:40;102649.16;;;-4.79;100.00
64095;BME280;50353;51.420;5.682;2024-01-10T08:19:06;102643.63;;;-4.64;100.00
64095;BME280;50353;51.420;5.682;2024-01-10T08:21:31;102645.66;;;-3.98;100.00
64095;BME280;50353;51.420;5.682;2024-01-10T08:23:56;102644.59;;;-4.04;100.00
64095;BME280;50353;51.420;5.682;2024-01-10T08:26:22;102652.81;;;-3.25;100.00
64095;BME280;50353;51.420;5.682;2024-01-10T08:28:48;102643.75;;;-4.03;100.00
64095;BME280;50353;51.420;5.682;2024-01-10T08:31:16;102650.28;;;-3.86;100.00
64095;BME280;50353;51.420;5.682;2024-01-10T08:33:43;102653.63;;;-3.60;100.00
64095;BME280;50353;51.420;5.682;2024-01-10T08:36:08;102659.13;;;-3.78;100.00
64095;BME280;50353;51.420;5.682;2024-01-10T08:38:35;102661.97;;;-3.99;100.00
64095;BME280;50353;51.420;5.682;2024-01-10T08:41:01;102666.31;;;-4.27;100.00
64095;BME280;50353;51.420;5.682;2024-01-10T08:43:26;102663.25;;;-3.84;100.00
64095;BME280;50353;51.420;5.682;2024-01-10T08:45:52;102671.31;;;-2.76;100.00
64095;BME280;50353;51.420;5.682;2024-01-10T08:48:17;102655.13;;;-2.29;92.36
64095;BME280;50353;51.420;5.682;2024-01-10T08:50:43;102655.25;;;-2.25;94.21
64095;BME280;50353;51.420;5.682;2024-01-10T08:53:10;102653.44;;;-2.65;91.84
64095;BME280;50353;51.420;5.682;2024-01-10T08:55:35;102637.63;;;-2.01;93.92
64095;BME280;50353;51.420;5.682;2024-01-10T08:58:05;102654.38;;;-1.41;90.66
64095;BME280;50353;51.420;5.682;2024-01-10T09:00:30;102654.94;;;-0.57;76.71
64095;BME280;50353;51.420;5.682;2024-01-10T09:02:56;102664.56;;;-1.03;72.32
64095;BME280;50353;51.420;5.682;2024-01-10T09:05:22;102653.97;;;-1.61;77.18
64095;BME280;50353;51.420;5.682;2024-01-10T09:07:47;102653.75;;;-1.28;74.69
64095;BME280;50353;51.420;5.682;2024-01-10T09:10:13;102661.66;;;-1.20;75.18
64095;BME280;50353;51.420;5.682;2024-01-10T09:12:39;102666.34;;;-1.48;73.02
64095;BME280;50353;51.420;5.682;2024-01-10T09:15:04;102656.00;;;-1.45;76.22
64095;BME280;50353;51.420;5.682;2024-01-10T09:17:30;102663.41;;;-2.06;76.14
64095;BME280;50353;51.420;5.682;2024-01-10T09:19:55;102669.31;;;-2.13;85.95
64095;BME280;50353;51.420;5.682;2024-01-10T09:22:21;102670.50;;;-2.39;86.11
64095;BME280;50353;51.420;5.682;2024-01-10T09:24:46;102671.06;;;-2.12;87.13
64095;BME280;50353;51.420;5.682;2024-01-10T09:27:11;102675.38;;;-1.73;85.47
64095;BME280;50353;51.420;5.682;2024-01-10T09:29:37;102671.81;;;-0.83;78.72
64095;BME280;50353;51.420;5.682;2024-01-10T09:32:02;102665.66;;;-0.37;70.69
64095;BME280;50353;51.420;5.682;2024-01-10T09:34:28;102672.53;;;-1.40;70.33
64095;BME280;50353;51.420;5.682;2024-01-10T09:36:53;102668.41;;;-1.74;75.07
64095;BME280;50353;51.420;5.682;2024-01-10T09:39:19;102690.09;;;-2.48;92.64
64095;BME280;50353;51.420;5.682;2024-01-10T09:41:48;102673.19;;;-1.94;87.68
64095;BME280;50353;51.420;5.682;2024-01-10T09:44:15;102677.06;;;-2.51;86.89
64095;BME280;50353;51.420;5.682;2024-01-10T09:46:46;102668.50;;;-1.70;82.00
64095;BME280;50353;51.420;5.682;2024-01-10T09:49:13;102670.44;;;-1.12;73.24
64095;BME280;50353;51.420;5.682;2024-01-10T09:51:38;102666.53;;;-2.21;79.06
64095;BME280;50353;51.420;5.682;2024-01-10T09:54:04;102679.66;;;-2.13;88.17
64095;BME280;50353;51.420;5.682;2024-01-10T09:56:30;102677.97;;;-0.78;78.36
64095;BME280;50353;51.420;5.682;2024-01-10T09:58:58;102673.50;;;-0.87;73.07
64095;BME280;50353;51.420;5.682;2024-01-10T10:01:26;102680.94;;;0.05;71.33
64095;BME280;50353;51.420;5.682;2024-01-10T10:03:53;102663.56;;;0.77;63.03
64095;BME280;50353;51.420;5.682;2024-01-10T10:06:20;102669.53;;;-0.65;62.91
64095;BME280;50353;51.420;5.682;2024-01-10T10:08:46;102681.97;;;-1.88;68.02
64095;BME280;50353;51.420;5.682;2024-01-10T10:11:14;102682.41;;;-1.20;72.55
64095;BME280;50353;51.420;5.682;2024-01-10T10:13:40;102681.97;;;-1.88;72.64
64095;BME280;50353;51.420;5.682;2024-01-10T10:16:07;102684.63;;;-1.42;75.22
64095;BME280;50353;51.420;5.682;2024-01-10T10:18:35;102679.38;;;-0.97;73.37
64095;BME280;50353;51.420;5.682;2024-01-10T10:21:13;102666.63;;;-1.32;76.42
64095;BME280;50353;51.420;5.682;2024-01-10T10:23:42;102668.88;;;-2.32;80.64
64095;BME280;50353;51.420;5.682;2024-01-10T10:26:11;102684.47;;;-2.67;88.75
64095;BME280;50353;51.420;5.682;2024-01-10T10:28:40;102672.06;;;-2.80;88.43
64095;BME280;50353;51.420;5.682;2024-01-10T10:31:06;102671.06;;;-2.50;88.47
64095;BME280;50353;51.420;5.682;2024-01-10T10:33:35;102672.63;;;-2.57;89.08
64095;BME280;50353;51.420;5.682;2024-01-10T10:36:01;102671.91;;;-2.86;88.02
64095;BME280;50353;51.420;5.682;2024-01-10T10:38:26;102663.66;;;-2.33;90.13
64095;BME280;50353;51.420;5.682;2024-01-10T10:40:51;102661.56;;;-2.12;87.89
64095;BME280;50353;51.420;5.682;2024-01-10T10:43:18;102650.00;;;-1.88;83.23
64095;BME280;50353;51.420;5.682;2024-01-10T10:45:48;102658.72;;;-2.24;86.53
64095;BME280;50353;51.420;5.682;2024-01-10T10:48:16;102649.84;;;-2.35;85.05
64095;BME280;50353;51.420;5.682;2024-01-10T10:53:34;102649.59;;;-2.07;86.38
64095;BME280;50353;51.420;5.682;2024-01-10T10:56:02;102650.09;;;-2.23;86.28
64095;BME280;50353;51.420;5.682;2024-01-10T10:58:30;102653.81;;;-2.10;89.13
64095;BME280;50353;51.420;5.682;2024-01-10T11:00:57;102643.31;;;-2.18;88.76
64095;BME280;50353;51.420;5.682;2024-01-10T11:03:23;102651.72;;;-1.87;88.35
64095;BME280;50353;51.420;5.682;2024-01-10T11:05:50;102648.63;;;-2.10;88.05
64095;BME280;50353;51.420;5.682;2024-01-10T11:08:17;102642.56;;;-1.71;81.58
64095;BME280;50353;51.420;5.682;2024-01-10T11:10:46;102652.44;;;-1.94;83.84
64095;BME280;50353;51.420;5.682;2024-01-10T11:13:56;102651.50;;;-1.57;82.97
64095;BME280;50353;51.420;5.682;2024-01-10T11:21:56;102646.94;;;-1.68;83.66
64095;BME280;50353;51.420;5.682;2024-01-10T11:24:25;102641.06;;;-1.58;81.55
64095;BME280;50353;51.420;5.682;2024-01-10T11:27:06;102634.13;;;-1.12;79.42
64095;BME280;50353;51.420;5.682;2024-01-10T11:29:32;102639.06;;;-1.27;78.48
64095;BME280;50353;51.420;5.682;2024-01-10T11:31:57;102638.25;;;-1.25;76.80
64095;BME280;50353;51.420;5.682;2024-01-10T11:34:24;102642.31;;;-0.89;75.52
64095;BME280;50353;51.420;5.682;2024-01-10T11:37:17;102647.88;;;-1.17;77.98
64095;BME280;50353;51.420;5.682;2024-01-10T11:39:44;102635.28;;;-0.96;73.54
64095;BME280;50353;51.420;5.682;2024-01-10T11:42:09;102638.25;;;-1.23;74.79
64095;BME280;50353;51.420;5.682;2024-01-10T11:44:46;102624.69;;;-1.56;76.45
64095;BME280;50353;51.420;5.682;2024-01-10T11:47:13;102614.66;;;-1.37;76.16
64095;BME280;50353;51.420;5.682;2024-01-10T11:49:40;102620.63;;;-0.92;77.94
64095;BME280;50353;51.420;5.682;2024-01-10T11:52:05;102612.38;;;-0.66;76.12
64095;BME280;50353;51.420;5.682;2024-01-10T11:54:42;102618.59;;;-1.10;75.08
64095;BME280;50353;51.420;5.682;2024-01-10T11:57:12;102616.09;;;-1.04;74.48
64095;BME280;50353;51.420;5.682;2024-01-10T11:59:40;102621.22;;;-1.09;74.56
64095;BME280;50353;51.420;5.682;2024-01-10T12:02:06;102621.06;;;-1.18;75.81
64095;BME280;50353;51.420;5.682;2024-01-10T12:04:32;102616.22;;;-0.98;75.75
64095;BME280;50353;51.420;5.682;2024-01-10T12:06:57;102616.59;;;-0.73;72.60
64095;BME280;50353;51.420;5.682;2024-01-10T12:09:23;102614.72;;;-0.24;71.13
64095;BME280;50353;51.420;5.682;2024-01-10T12:11:50;102617.91;;;-0.43;69.19
64095;BME280;50353;51.420;5.682;2024-01-10T12:14:15;102606.47;;;-0.55;69.66
64095;BME280;50353;51.420;5.682;2024-01-10T12:16:42;102598.25;;;-0.26;67.68
64095;BME280;50353;51.420;5.682;2024-01-10T12:19:07;102618.88;;;-0.38;69.87
64095;BME280;50353;51.420;5.682;2024-01-10T12:21:32;102599.81;;;-0.37;72.54
64095;BME280;50353;51.420;5.682;2024-01-10T12:23:58;102598.41;;;-0.75;70.10
64095;BME280;50353;51.420;5.682;2024-01-10T12:26:23;102587.38;;;-0.61;70.30
64095;BME280;50353;51.420;5.682;2024-01-10T12:28:55;102600.41;;;-0.57;68.55
64095;BME280;50353;51.420;5.682;2024-01-10T12:31:21;102597.88;;;-0.51;70.07
64095;BME280;50353;51.420;5.682;2024-01-10T12:33:50;102585.00;;;-0.44;72.82
64095;BME280;50353;51.420;5.682;2024-01-10T12:36:17;102600.44;;;-0.52;72.19
64095;BME280;50353;51.420;5.682;2024-01-10T12:38:43;102590.88;;;-0.56;70.94
64095;BME280;50353;51.420;5.682;2024-01-10T12:41:09;102596.34;;;-0.38;71.82
64095;BME280;50353;51.420;5.682;2024-01-10T12:43:35;102598.31;;;-0.20;70.60
64095;BME280;50353;51.420;5.682;2024-01-10T12:46:12;102599.88;;;-0.34;70.82